createdAt,value
2023-01-25T00:01:30.875Z,1.70
2023-01-25T00:04:32.592Z,1.60
2023-01-25T00:07:34.368Z,1.40
2023-01-25T00:10:36.047Z,1.40
2023-01-25T00:13:37.746Z,1.30
2023-01-25T00:16:39.937Z,1.40
2023-01-25T00:19:41.696Z,1.20
2023-01-25T00:22:43.404Z,1.30
2023-01-25T00:25:45.142Z,1.40
2023-01-25T00:28:51.108Z,1.40
2023-01-25T00:32:01.641Z,1.40
2023-01-25T00:35:03.772Z,1.20
2023-01-25T00:38:27.417Z,1.10
2023-01-25T00:41:29.094Z,1.10
2023-01-25T00:44:30.864Z,1.20
2023-01-25T00:47:34.394Z,1.30
2023-01-25T00:50:39.460Z,1.50
2023-01-25T00:53:41.509Z,1.40
2023-01-25T00:56:43.585Z,1.40
2023-01-25T00:59:47.390Z,1.40
2023-01-25T01:02:49.820Z,1.20
2023-01-25T01:06:06.820Z,1.20
2023-01-25T01:09:13.913Z,1.40
2023-01-25T01:12:15.636Z,1.50
2023-01-25T01:15:17.487Z,1.30
2023-01-25T01:18:19.222Z,1.40
2023-01-25T01:21:21.443Z,1.40
2023-01-25T01:24:23.386Z,1.50
2023-01-25T01:27:25.218Z,1.40
2023-01-25T01:30:27.491Z,1.30
2023-01-25T01:33:29.384Z,1.40
2023-01-25T01:36:31.412Z,1.40
2023-01-25T01:39:33.245Z,1.20
2023-01-25T01:42:58.736Z,1.40
2023-01-25T01:46:03.543Z,1.10
2023-01-25T01:49:28.755Z,1.20
2023-01-25T01:52:38.033Z,1.10
2023-01-25T01:55:40.526Z,1.30
2023-01-25T01:58:44.276Z,1.40
2023-01-25T02:01:46.566Z,1.40
2023-01-25T02:04:49.926Z,1.40
2023-01-25T02:07:54.822Z,1.30
2023-01-25T02:10:58.523Z,1.30
2023-01-25T02:14:01.752Z,1.30
2023-01-25T02:17:04.103Z,1.40
2023-01-25T02:20:14.696Z,1.30
2023-01-25T02:23:25.336Z,1.20
2023-01-25T02:26:27.296Z,1.40
2023-01-25T02:29:29.920Z,1.40
2023-01-25T02:32:32.897Z,1.40
2023-01-25T02:35:48.506Z,1.40
2023-01-25T02:38:56.729Z,1.40
2023-01-25T02:41:58.444Z,1.30
2023-01-25T02:45:01.388Z,1.20
2023-01-25T02:48:03.160Z,1.00
2023-01-25T02:51:08.570Z,1.20
2023-01-25T02:54:12.465Z,1.30
2023-01-25T02:57:14.220Z,1.20
2023-01-25T03:00:18.335Z,1.30
2023-01-25T03:03:21.494Z,1.20
2023-01-25T03:06:23.257Z,1.20
2023-01-25T03:09:25.864Z,1.20
2023-01-25T03:12:28.246Z,1.20
2023-01-25T03:15:30.131Z,1.30
2023-01-25T03:18:32.817Z,1.20
2023-01-25T03:21:35.082Z,1.20
2023-01-25T03:24:37.109Z,1.10
2023-01-25T03:27:39.087Z,1.20
2023-01-25T03:30:45.042Z,1.20
2023-01-25T03:33:46.898Z,1.00
2023-01-25T03:36:48.742Z,1.10
2023-01-25T03:39:50.523Z,1.20
2023-01-25T03:42:54.381Z,1.20
2023-01-25T03:46:01.564Z,1.30
2023-01-25T03:49:05.979Z,1.30
2023-01-25T03:52:08.731Z,1.00
2023-01-25T03:55:13.464Z,1.10
2023-01-25T03:58:17.265Z,1.20
2023-01-25T04:01:19.201Z,1.10
2023-01-25T04:04:21.080Z,1.10
2023-01-25T04:07:23.883Z,1.10
2023-01-25T04:10:25.695Z,1.10
2023-01-25T04:13:29.276Z,1.10
2023-01-25T04:16:31.430Z,1.00
2023-01-25T04:19:51.265Z,1.00
2023-01-25T04:22:55.744Z,0.90
2023-01-25T04:26:09.329Z,1.10
2023-01-25T04:29:11.095Z,1.10
2023-01-25T04:32:13.336Z,1.30
2023-01-25T04:35:15.331Z,1.00
2023-01-25T04:38:18.559Z,1.10
2023-01-25T04:41:21.238Z,1.00
2023-01-25T04:44:23.997Z,1.00
2023-01-25T04:47:25.924Z,1.00
2023-01-25T04:50:28.122Z,0.80
2023-01-25T04:53:29.889Z,1.00
2023-01-25T04:56:35.473Z,1.00
2023-01-25T04:59:37.354Z,1.00
2023-01-25T05:02:39.744Z,0.90
2023-01-25T05:05:47.666Z,1.10
2023-01-25T05:08:52.918Z,1.00
2023-01-25T05:11:55.435Z,1.00
2023-01-25T05:15:02.073Z,1.00
2023-01-25T05:18:04.765Z,1.10
2023-01-25T05:21:28.534Z,1.10
2023-01-25T05:24:32.000Z,1.00
2023-01-25T05:27:37.162Z,1.00
2023-01-25T05:30:59.235Z,1.00
2023-01-25T05:34:02.245Z,1.00
2023-01-25T05:37:05.508Z,0.90
2023-01-25T05:40:08.776Z,0.80
2023-01-25T05:43:13.594Z,0.80
2023-01-25T05:46:16.250Z,0.80
2023-01-25T05:49:18.793Z,0.40
2023-01-25T05:52:20.804Z,0.40
2023-01-25T05:55:22.707Z,0.70
2023-01-25T05:58:26.748Z,0.70
2023-01-25T06:01:29.115Z,0.80
2023-01-25T06:04:33.328Z,0.80
2023-01-25T06:07:36.635Z,0.80
2023-01-25T06:10:38.373Z,0.90
2023-01-25T06:13:40.432Z,0.60
2023-01-25T06:16:42.303Z,0.70
2023-01-25T06:20:02.733Z,0.80
2023-01-25T06:23:10.398Z,0.80
2023-01-25T06:26:14.238Z,0.80
2023-01-25T06:29:15.977Z,0.90
2023-01-25T06:32:17.885Z,0.90
2023-01-25T06:35:19.608Z,0.80
2023-01-25T06:38:21.371Z,0.90
2023-01-25T06:41:23.257Z,0.80
2023-01-25T06:44:25.011Z,0.80
2023-01-25T06:47:26.785Z,0.80
2023-01-25T06:50:28.887Z,0.70
2023-01-25T06:53:32.705Z,0.80
2023-01-25T06:56:34.425Z,0.90
2023-01-25T06:59:36.254Z,0.70
2023-01-25T07:02:38.180Z,0.80
2023-01-25T07:05:39.962Z,0.70
2023-01-25T07:08:41.743Z,0.60
2023-01-25T07:11:43.521Z,0.60
2023-01-25T07:14:45.349Z,0.70
2023-01-25T07:17:47.041Z,0.60
2023-01-25T07:20:49.201Z,0.40
2023-01-25T07:23:51.861Z,0.60
2023-01-25T07:26:53.573Z,0.70
2023-01-25T07:29:56.051Z,0.70
2023-01-25T07:32:59.461Z,0.70
2023-01-25T07:36:08.893Z,0.60
2023-01-25T07:39:11.692Z,0.60
2023-01-25T07:42:13.560Z,0.50
2023-01-25T07:45:30.045Z,0.60
2023-01-25T07:48:33.112Z,0.70
2023-01-25T07:51:34.924Z,0.80
2023-01-25T07:54:36.642Z,0.60
2023-01-25T07:57:38.349Z,0.60
2023-01-25T08:00:40.373Z,0.60
2023-01-25T08:03:43.735Z,0.50
2023-01-25T08:06:46.201Z,0.60
2023-01-25T08:09:47.931Z,0.50
2023-01-25T08:12:49.619Z,0.70
2023-01-25T08:15:55.709Z,0.60
2023-01-25T08:18:59.723Z,0.60
2023-01-25T08:22:01.414Z,0.70
2023-01-25T08:25:04.246Z,0.80
2023-01-25T08:28:06.108Z,0.70
2023-01-25T08:31:08.873Z,0.70
2023-01-25T08:34:11.180Z,0.70
2023-01-25T08:37:12.906Z,0.70
2023-01-25T08:40:14.894Z,0.80
2023-01-25T08:43:16.667Z,0.70
2023-01-25T08:46:18.902Z,0.70
2023-01-25T08:49:21.105Z,0.60
2023-01-25T08:52:23.065Z,0.80
2023-01-25T08:55:24.870Z,0.80
2023-01-25T08:58:26.865Z,0.70
2023-01-25T09:01:28.598Z,0.70
2023-01-25T09:04:30.441Z,0.80
2023-01-25T09:07:32.404Z,0.80
2023-01-25T09:10:34.565Z,0.70
2023-01-25T09:13:36.509Z,0.80
2023-01-25T09:16:38.203Z,0.70
2023-01-25T09:19:42.036Z,0.70
2023-01-25T09:22:43.819Z,0.80
2023-01-25T09:25:45.473Z,0.80
2023-01-25T09:28:49.951Z,0.80
2023-01-25T09:31:52.441Z,0.80
2023-01-25T09:35:20.465Z,1.00
2023-01-25T09:38:22.719Z,0.90
2023-01-25T09:41:53.542Z,0.80
2023-01-25T09:45:02.449Z,0.90
2023-01-25T09:48:19.435Z,0.90
2023-01-25T09:51:29.264Z,0.90
2023-01-25T09:54:42.384Z,0.80
2023-01-25T09:57:50.933Z,1.00
2023-01-25T10:01:15.682Z,0.90
2023-01-25T10:04:30.520Z,0.90
2023-01-25T10:07:58.917Z,0.90
2023-01-25T10:11:08.197Z,0.80
2023-01-25T10:14:18.112Z,0.90
2023-01-25T10:17:35.372Z,1.00
2023-01-25T10:21:16.562Z,1.00
2023-01-25T10:24:55.960Z,1.00
2023-01-25T10:28:07.937Z,1.00
2023-01-25T10:31:21.911Z,1.00
2023-01-25T10:34:41.364Z,1.00
2023-01-25T10:37:50.732Z,1.00
2023-01-25T10:41:03.979Z,0.90
2023-01-25T10:44:24.804Z,0.90
2023-01-25T10:47:34.223Z,0.90
2023-01-25T10:50:41.083Z,1.00
2023-01-25T10:53:44.212Z,1.10
2023-01-25T10:56:46.808Z,1.10
2023-01-25T10:59:52.599Z,1.00
2023-01-25T11:02:55.342Z,1.00
2023-01-25T11:05:59.244Z,0.90
2023-01-25T11:09:02.657Z,0.90
2023-01-25T11:12:18.461Z,0.90
2023-01-25T11:15:25.557Z,0.80
2023-01-25T11:18:35.137Z,0.90
2023-01-25T11:21:36.988Z,0.90
2023-01-25T11:24:38.701Z,0.90
2023-01-25T11:27:40.441Z,0.90
2023-01-25T11:30:42.459Z,0.80
2023-01-25T11:33:44.309Z,0.80
2023-01-25T11:36:52.046Z,1.00
2023-01-25T11:40:12.377Z,0.80
2023-01-25T11:43:29.103Z,0.90
2023-01-25T11:46:55.103Z,0.80
2023-01-25T11:49:59.616Z,0.90
2023-01-25T11:53:35.440Z,1.10
2023-01-25T11:56:59.427Z,1.00
2023-01-25T12:00:22.312Z,1.00
2023-01-25T12:03:47.111Z,1.00
2023-01-25T12:07:33.501Z,1.10
2023-01-25T12:11:07.653Z,1.10
2023-01-25T12:14:29.484Z,1.00
2023-01-25T12:17:49.144Z,1.00
2023-01-25T12:21:08.116Z,0.90
2023-01-25T12:24:26.739Z,1.00
2023-01-25T12:27:31.462Z,1.00
2023-01-25T12:30:45.990Z,0.90
2023-01-25T12:33:56.035Z,0.90
2023-01-25T12:37:05.028Z,0.90
2023-01-25T12:40:15.409Z,1.00
2023-01-25T12:43:27.859Z,1.00
2023-01-25T12:46:38.650Z,1.10
2023-01-25T12:49:46.275Z,1.00
2023-01-25T12:52:55.865Z,1.10
2023-01-25T12:55:58.681Z,1.10
2023-01-25T12:59:07.952Z,1.10
2023-01-25T13:02:37.599Z,1.00
2023-01-25T13:05:43.444Z,0.80
2023-01-25T13:09:04.601Z,0.90
2023-01-25T13:12:11.392Z,0.90
2023-01-25T13:15:42.389Z,1.00
2023-01-25T13:18:47.080Z,1.10
2023-01-25T13:21:50.520Z,1.10
2023-01-25T13:25:15.632Z,1.00
2023-01-25T13:28:41.977Z,0.90
2023-01-25T13:31:53.503Z,1.00
2023-01-25T13:34:55.347Z,1.00
2023-01-25T13:38:17.279Z,1.00
2023-01-25T13:41:19.273Z,1.00
2023-01-25T13:44:28.270Z,1.00
2023-01-25T13:47:37.826Z,1.00
2023-01-25T13:50:54.841Z,1.10
2023-01-25T13:53:58.767Z,1.00
2023-01-25T13:57:12.877Z,1.00
2023-01-25T14:00:17.113Z,0.90
2023-01-25T14:03:23.190Z,1.00
2023-01-25T14:06:26.334Z,1.00
2023-01-25T14:09:29.865Z,1.00
2023-01-25T14:12:34.854Z,1.00
2023-01-25T14:15:36.566Z,1.00
2023-01-25T14:18:38.662Z,0.80
2023-01-25T14:21:40.369Z,0.90
2023-01-25T14:24:42.086Z,0.70
2023-01-25T14:27:54.797Z,0.90
2023-01-25T14:30:58.887Z,1.00
2023-01-25T14:34:04.011Z,1.10
2023-01-25T14:37:26.047Z,1.00
2023-01-25T14:40:29.778Z,1.00
2023-01-25T14:43:32.083Z,0.90
2023-01-25T14:46:38.501Z,0.90
2023-01-25T14:49:40.218Z,0.90
2023-01-25T14:52:41.952Z,0.90
2023-01-25T14:55:46.154Z,0.90
2023-01-25T14:58:50.961Z,1.00
2023-01-25T15:02:31.927Z,1.00
2023-01-25T15:05:36.423Z,0.80
2023-01-25T15:08:39.094Z,0.90
2023-01-25T15:11:49.269Z,0.90
2023-01-25T15:14:54.190Z,0.90
2023-01-25T15:17:56.462Z,0.80
2023-01-25T15:20:58.356Z,0.80
2023-01-25T15:24:06.838Z,0.90
2023-01-25T15:27:10.315Z,0.90
2023-01-25T15:30:16.808Z,0.80
2023-01-25T15:33:27.339Z,0.80
2023-01-25T15:36:30.506Z,0.20
2023-01-25T15:39:32.636Z,0.90
2023-01-25T15:42:34.380Z,0.90
2023-01-25T15:45:36.223Z,0.80
2023-01-25T15:48:42.107Z,0.80
2023-01-25T15:51:43.892Z,0.70
2023-01-25T15:54:52.243Z,0.80
2023-01-25T15:58:02.193Z,0.70
2023-01-25T16:01:04.390Z,0.60
2023-01-25T16:04:06.142Z,0.60
2023-01-25T16:07:28.797Z,0.60
2023-01-25T16:10:30.619Z,0.60
2023-01-25T16:13:32.323Z,0.60
2023-01-25T16:16:38.669Z,0.60
2023-01-25T16:19:40.430Z,0.50
2023-01-25T16:22:42.119Z,0.60
2023-01-25T16:25:47.546Z,0.60
2023-01-25T16:28:49.407Z,0.60
2023-01-25T16:31:52.597Z,0.50
2023-01-25T16:34:54.499Z,0.50
2023-01-25T16:37:56.879Z,0.40
2023-01-25T16:40:58.563Z,0.50
2023-01-25T16:44:00.346Z,0.40
2023-01-25T16:47:03.667Z,0.50
2023-01-25T16:50:12.577Z,0.40
2023-01-25T16:53:14.446Z,0.50
2023-01-25T16:56:17.428Z,0.40
2023-01-25T16:59:19.863Z,0.50
2023-01-25T17:02:21.696Z,0.40
2023-01-25T17:05:23.440Z,0.40
2023-01-25T17:08:25.416Z,0.40
2023-01-25T17:11:28.182Z,0.40
2023-01-25T17:14:30.399Z,0.30
2023-01-25T17:17:32.226Z,0.40
2023-01-25T17:20:34.026Z,0.30
2023-01-25T17:23:37.605Z,0.10
2023-01-25T17:26:40.655Z,0.30
2023-01-25T17:29:42.656Z,0.30
2023-01-25T17:32:44.657Z,0.20
2023-01-25T17:35:46.465Z,0.20
2023-01-25T17:38:48.276Z,0.20
2023-01-25T17:41:51.225Z,0.20
2023-01-25T17:44:52.952Z,0.20
2023-01-25T17:47:54.659Z,0.20
2023-01-25T17:51:02.723Z,0.30
2023-01-25T17:54:05.338Z,0.10
2023-01-25T17:57:07.034Z,0.10
2023-01-25T18:00:11.955Z,0.00
2023-01-25T18:03:17.373Z,0.00
2023-01-25T18:06:25.310Z,0.00
2023-01-25T18:09:27.378Z,0.10
2023-01-25T18:12:29.084Z,0.20
2023-01-25T18:15:31.129Z,0.10
2023-01-25T18:18:32.854Z,0.10
2023-01-25T18:21:35.699Z,0.00
2023-01-25T18:24:37.636Z,0.00
2023-01-25T18:27:39.687Z,0.10
2023-01-25T18:30:51.961Z,0.00
2023-01-25T18:33:53.833Z,0.00
2023-01-25T18:36:59.136Z,0.00
2023-01-25T18:40:00.999Z,-0.10
2023-01-25T18:43:02.754Z,0.00
2023-01-25T18:46:05.287Z,-0.10
2023-01-25T18:49:07.000Z,-0.10
2023-01-25T18:52:11.895Z,-0.10
2023-01-25T18:55:13.796Z,0.00
2023-01-25T18:58:15.521Z,0.00
2023-01-25T19:01:19.609Z,0.10
2023-01-25T19:04:21.393Z,0.00
2023-01-25T19:07:23.160Z,0.00
2023-01-25T19:10:24.891Z,-0.10
2023-01-25T19:13:27.135Z,-0.10
2023-01-25T19:16:28.932Z,-0.10
2023-01-25T19:19:33.565Z,0.00
2023-01-25T19:22:35.378Z,-0.10
2023-01-25T19:25:37.104Z,-0.10
2023-01-25T19:28:39.214Z,-0.10
2023-01-25T19:31:41.071Z,-0.10
2023-01-25T19:34:42.875Z,-0.20
2023-01-25T19:37:44.643Z,-0.20
2023-01-25T19:40:46.329Z,-0.20
2023-01-25T19:43:52.374Z,-0.20
2023-01-25T19:46:54.173Z,-0.20
2023-01-25T19:49:56.965Z,-0.20
2023-01-25T19:52:58.753Z,-0.20
2023-01-25T19:56:08.353Z,-0.20
2023-01-25T19:59:21.530Z,-0.20
2023-01-25T20:02:23.283Z,-0.20
2023-01-25T20:05:24.970Z,-0.20
2023-01-25T20:08:31.660Z,-0.30
2023-01-25T20:11:34.324Z,-0.20
2023-01-25T20:14:37.413Z,-0.20
2023-01-25T20:17:39.217Z,-0.20
2023-01-25T20:20:40.920Z,-0.20
2023-01-25T20:23:44.798Z,-0.20
2023-01-25T20:26:46.579Z,-0.20
2023-01-25T20:29:49.105Z,-0.20
2023-01-25T20:32:50.899Z,-0.30
2023-01-25T20:35:54.934Z,-0.30
2023-01-25T20:38:57.020Z,-0.20
2023-01-25T20:41:58.996Z,-0.20
2023-01-25T20:45:00.749Z,-0.20
2023-01-25T20:48:02.489Z,-0.30
2023-01-25T20:51:05.913Z,-0.30
2023-01-25T20:54:07.640Z,-0.30
2023-01-25T20:57:09.445Z,-0.20
2023-01-25T21:00:11.551Z,-0.20
2023-01-25T21:03:13.242Z,-0.20
2023-01-25T21:06:16.281Z,-0.20
2023-01-25T21:09:18.025Z,-0.40
2023-01-25T21:12:19.840Z,-0.30
2023-01-25T21:15:22.456Z,-0.20
2023-01-25T21:18:31.370Z,-0.20
2023-01-25T21:21:34.654Z,-0.30
2023-01-25T21:24:37.171Z,-0.30
2023-01-25T21:27:38.895Z,-0.40
2023-01-25T21:30:40.592Z,-0.30
2023-01-25T21:33:42.831Z,-0.30
2023-01-25T21:36:44.576Z,-0.20
2023-01-25T21:39:46.305Z,-0.30
2023-01-25T21:42:48.616Z,-0.30
2023-01-25T21:46:08.672Z,-0.40
2023-01-25T21:49:30.504Z,-0.40
2023-01-25T21:52:36.235Z,-0.40
2023-01-25T21:55:38.186Z,-0.40
2023-01-25T21:58:39.893Z,-0.30
2023-01-25T22:01:43.000Z,-0.40
2023-01-25T22:04:44.795Z,-0.40
2023-01-25T22:07:46.552Z,-0.40
2023-01-25T22:10:48.264Z,-0.20
2023-01-25T22:13:49.977Z,-0.30
2023-01-25T22:16:52.583Z,-0.40
2023-01-25T22:19:54.636Z,-0.30
2023-01-25T22:22:56.490Z,-0.30
2023-01-25T22:26:03.560Z,-0.60
2023-01-25T22:29:05.285Z,-0.60
2023-01-25T22:32:07.017Z,-0.40
2023-01-25T22:35:09.053Z,-0.40
2023-01-25T22:38:10.768Z,-0.50
2023-01-25T22:41:18.048Z,-0.60
2023-01-25T22:44:19.882Z,-0.70
2023-01-25T22:47:21.604Z,-0.80
2023-01-25T22:50:23.318Z,-0.70
2023-01-25T22:53:25.045Z,-0.80
2023-01-25T22:56:32.302Z,-0.70
2023-01-25T22:59:34.031Z,-0.60
2023-01-25T23:02:37.957Z,-0.60
2023-01-25T23:05:39.792Z,-0.70
2023-01-25T23:08:42.170Z,-0.60
2023-01-25T23:11:43.885Z,-0.60
2023-01-25T23:14:51.522Z,-0.40
2023-01-25T23:18:12.017Z,-0.40
2023-01-25T23:21:14.128Z,-0.40
2023-01-25T23:24:15.917Z,-0.40
2023-01-25T23:27:17.652Z,-0.30
2023-01-25T23:30:19.482Z,-0.40
2023-01-25T23:33:21.183Z,-0.40
2023-01-25T23:36:25.466Z,-0.50
2023-01-25T23:39:27.237Z,-0.40
2023-01-25T23:42:28.985Z,-0.40
2023-01-25T23:45:30.752Z,-0.40
2023-01-25T23:48:32.671Z,-0.50
2023-01-25T23:51:34.396Z,-0.50
2023-01-25T23:54:36.222Z,-0.50
2023-01-25T23:57:37.910Z,-0.50
